Terminal Aerodrome Forecast
Issued by NWS Charleston, WV

Current Version | Previous Version | Graphics & Text | Print | Product List | Glossary On
Versions: 1 2 3 4 5 6 7 8 9 10 11 12 13 14 15 16 17 18 19 20 21 22 23 24 25 26 27
000
FTUS41 KRLX 140500
TAFEKN
TAF
KEKN 140535Z 1406/1506 17010G17KT P6SM SCT250
     FM141700 21014G21KT P6SM BKN090
     FM142000 21012G18KT 4SM SHRA VCTS OVC035CB
     FM150100 19009KT P6SM VCTS OVC030CB
     FM150200 19009KT 4SM SHRA VCTS OVC022CB=

USA.gov is the U.S. government's official web portal to all federal, state and local government web resources and services.